sensor_id;sensor_type;location;lat;lon;timestamp;P1;durP1;ratioP1;P2;durP2;ratioP2
35699;SDS011;21818;51.078;12.108;2022-11-24T00:01:28;4.88;;;3.15;;
35699;SDS011;21818;51.078;12.108;2022-11-24T00:06:20;9.23;;;3.25;;
35699;SDS011;21818;51.078;12.108;2022-11-24T00:08:46;8.05;;;3.83;;
35699;SDS011;21818;51.078;12.108;2022-11-24T00:11:13;7.88;;;3.05;;
35699;SDS011;21818;51.078;12.108;2022-11-24T00:13:41;9.43;;;3.70;;
35699;SDS011;21818;51.078;12.108;2022-11-24T00:18:38;6.10;;;2.80;;
35699;SDS011;21818;51.078;12.108;2022-11-24T00:21:05;5.07;;;2.90;;
35699;SDS011;21818;51.078;12.108;2022-11-24T00:23:31;6.72;;;2.95;;
35699;SDS011;21818;51.078;12.108;2022-11-24T00:26:04;5.30;;;3.08;;
35699;SDS011;21818;51.078;12.108;2022-11-24T00:28:34;7.88;;;3.28;;
35699;SDS011;21818;51.078;12.108;2022-11-24T00:31:01;5.72;;;3.08;;
35699;SDS011;21818;51.078;12.108;2022-11-24T00:33:27;7.43;;;3.60;;
35699;SDS011;21818;51.078;12.108;2022-11-24T00:35:56;7.80;;;2.85;;
35699;SDS011;21818;51.078;12.108;2022-11-24T00:38:23;6.80;;;3.40;;
35699;SDS011;21818;51.078;12.108;2022-11-24T00:40:49;9.68;;;3.65;;
35699;SDS011;21818;51.078;12.108;2022-11-24T00:43:16;6.82;;;3.28;;
35699;SDS011;21818;51.078;12.108;2022-11-24T00:45:42;6.13;;;3.78;;
35699;SDS011;21818;51.078;12.108;2022-11-24T00:48:08;7.00;;;3.33;;
35699;SDS011;21818;51.078;12.108;2022-11-24T00:50:33;9.40;;;3.97;;
35699;SDS011;21818;51.078;12.108;2022-11-24T00:52:59;9.10;;;3.38;;
35699;SDS011;21818;51.078;12.108;2022-11-24T00:55:25;6.45;;;3.60;;
35699;SDS011;21818;51.078;12.108;2022-11-24T00:57:50;6.65;;;3.95;;
35699;SDS011;21818;51.078;12.108;2022-11-24T01:00:16;7.40;;;3.50;;
35699;SDS011;21818;51.078;12.108;2022-11-24T01:02:43;7.35;;;4.15;;
35699;SDS011;21818;51.078;12.108;2022-11-24T01:05:08;9.00;;;4.05;;
35699;SDS011;21818;51.078;12.108;2022-11-24T01:07:34;6.10;;;3.58;;
35699;SDS011;21818;51.078;12.108;2022-11-24T01:10:00;8.60;;;3.88;;
35699;SDS011;21818;51.078;12.108;2022-11-24T01:12:26;7.90;;;3.67;;
35699;SDS011;21818;51.078;12.108;2022-11-24T01:14:51;7.53;;;4.05;;
35699;SDS011;21818;51.078;12.108;2022-11-24T01:17:17;9.60;;;4.20;;
35699;SDS011;21818;51.078;12.108;2022-11-24T01:19:42;7.20;;;3.50;;
35699;SDS011;21818;51.078;12.108;2022-11-24T01:22:11;7.50;;;4.00;;
35699;SDS011;21818;51.078;12.108;2022-11-24T01:24:37;7.78;;;3.67;;
35699;SDS011;21818;51.078;12.108;2022-11-24T01:27:02;7.55;;;3.88;;
35699;SDS011;21818;51.078;12.108;2022-11-24T01:29:28;10.60;;;3.97;;
35699;SDS011;21818;51.078;12.108;2022-11-24T01:31:53;8.75;;;4.72;;
35699;SDS011;21818;51.078;12.108;2022-11-24T01:34:19;9.25;;;4.32;;
35699;SDS011;21818;51.078;12.108;2022-11-24T01:36:45;5.68;;;3.40;;
35699;SDS011;21818;51.078;12.108;2022-11-24T01:39:10;8.00;;;3.90;;
35699;SDS011;21818;51.078;12.108;2022-11-24T01:41:37;6.18;;;4.15;;
35699;SDS011;21818;51.078;12.108;2022-11-24T01:47:50;9.63;;;4.03;;
35699;SDS011;21818;51.078;12.108;2022-11-24T01:49:58;7.47;;;4.00;;
35699;SDS011;21818;51.078;12.108;2022-11-24T01:52:36;6.93;;;4.70;;
35699;SDS011;21818;51.078;12.108;2022-11-24T01:55:07;11.85;;;4.85;;
35699;SDS011;21818;51.078;12.108;2022-11-24T01:57:40;7.57;;;3.72;;
35699;SDS011;21818;51.078;12.108;2022-11-24T02:00:09;8.43;;;4.03;;
35699;SDS011;21818;51.078;12.108;2022-11-24T02:02:36;6.75;;;3.72;;
35699;SDS011;21818;51.078;12.108;2022-11-24T02:05:07;9.27;;;4.05;;
35699;SDS011;21818;51.078;12.108;2022-11-24T02:07:45;7.07;;;4.03;;
35699;SDS011;21818;51.078;12.108;2022-11-24T02:10:12;9.50;;;4.32;;
35699;SDS011;21818;51.078;12.108;2022-11-24T02:12:40;7.45;;;3.85;;
35699;SDS011;21818;51.078;12.108;2022-11-24T02:15:09;7.88;;;4.40;;
35699;SDS011;21818;51.078;12.108;2022-11-24T02:17:36;8.38;;;4.07;;
35699;SDS011;21818;51.078;12.108;2022-11-24T02:20:05;8.15;;;4.30;;
35699;SDS011;21818;51.078;12.108;2022-11-24T02:25:06;9.48;;;4.07;;
35699;SDS011;21818;51.078;12.108;2022-11-24T02:27:43;9.98;;;4.63;;
35699;SDS011;21818;51.078;12.108;2022-11-24T02:30:09;8.57;;;4.05;;
35699;SDS011;21818;51.078;12.108;2022-11-24T02:32:35;9.88;;;4.45;;
35699;SDS011;21818;51.078;12.108;2022-11-24T02:35:05;7.70;;;4.32;;
35699;SDS011;21818;51.078;12.108;2022-11-24T02:37:31;8.18;;;4.22;;
35699;SDS011;21818;51.078;12.108;2022-11-24T02:39:57;8.57;;;4.45;;
35699;SDS011;21818;51.078;12.108;2022-11-24T02:42:23;6.97;;;4.55;;
35699;SDS011;21818;51.078;12.108;2022-11-24T02:44:53;6.78;;;4.07;;
35699;SDS011;21818;51.078;12.108;2022-11-24T02:47:22;9.25;;;4.55;;
35699;SDS011;21818;51.078;12.108;2022-11-24T02:49:48;9.02;;;3.90;;
35699;SDS011;21818;51.078;12.108;2022-11-24T02:52:13;7.80;;;4.15;;
35699;SDS011;21818;51.078;12.108;2022-11-24T02:54:39;6.28;;;3.92;;
35699;SDS011;21818;51.078;12.108;2022-11-24T02:57:05;8.27;;;4.15;;
35699;SDS011;21818;51.078;12.108;2022-11-24T02:59:31;7.40;;;4.32;;
35699;SDS011;21818;51.078;12.108;2022-11-24T03:01:56;7.40;;;3.80;;
35699;SDS011;21818;51.078;12.108;2022-11-24T03:04:22;7.65;;;3.63;;
35699;SDS011;21818;51.078;12.108;2022-11-24T03:06:47;11.63;;;3.70;;
35699;SDS011;21818;51.078;12.108;2022-11-24T03:09:13;5.82;;;3.67;;
35699;SDS011;21818;51.078;12.108;2022-11-24T03:11:39;7.53;;;3.53;;
35699;SDS011;21818;51.078;12.108;2022-11-24T03:14:05;6.72;;;3.40;;
35699;SDS011;21818;51.078;12.108;2022-11-24T03:16:31;8.25;;;4.13;;
35699;SDS011;21818;51.078;12.108;2022-11-24T03:18:57;7.40;;;3.70;;
35699;SDS011;21818;51.078;12.108;2022-11-24T03:21:22;5.45;;;3.50;;
35699;SDS011;21818;51.078;12.108;2022-11-24T03:23:48;7.53;;;3.47;;
35699;SDS011;21818;51.078;12.108;2022-11-24T03:26:14;6.05;;;3.75;;
35699;SDS011;21818;51.078;12.108;2022-11-24T03:28:41;5.53;;;3.47;;
35699;SDS011;21818;51.078;12.108;2022-11-24T03:31:07;5.20;;;3.35;;
35699;SDS011;21818;51.078;12.108;2022-11-24T03:33:34;5.95;;;4.10;;
35699;SDS011;21818;51.078;12.108;2022-11-24T03:36:00;7.65;;;3.58;;
35699;SDS011;21818;51.078;12.108;2022-11-24T03:38:26;6.30;;;3.85;;
35699;SDS011;21818;51.078;12.108;2022-11-24T03:40:51;6.07;;;3.13;;
35699;SDS011;21818;51.078;12.108;2022-11-24T03:43:17;8.15;;;3.65;;
35699;SDS011;21818;51.078;12.108;2022-11-24T03:45:46;7.10;;;3.53;;
35699;SDS011;21818;51.078;12.108;2022-11-24T03:48:13;6.85;;;3.40;;
35699;SDS011;21818;51.078;12.108;2022-11-24T03:50:39;5.78;;;4.10;;
35699;SDS011;21818;51.078;12.108;2022-11-24T03:53:04;8.48;;;3.58;;
35699;SDS011;21818;51.078;12.108;2022-11-24T03:55:30;6.20;;;3.10;;
35699;SDS011;21818;51.078;12.108;2022-11-24T03:57:55;5.00;;;2.90;;
35699;SDS011;21818;51.078;12.108;2022-11-24T04:00:21;6.13;;;3.33;;
35699;SDS011;21818;51.078;12.108;2022-11-24T04:02:47;5.78;;;3.28;;
35699;SDS011;21818;51.078;12.108;2022-11-24T04:05:13;7.07;;;3.30;;
35699;SDS011;21818;51.078;12.108;2022-11-24T04:07:38;4.97;;;2.90;;
35699;SDS011;21818;51.078;12.108;2022-11-24T04:10:04;6.03;;;2.83;;
35699;SDS011;21818;51.078;12.108;2022-11-24T04:12:30;6.03;;;2.92;;
35699;SDS011;21818;51.078;12.108;2022-11-24T04:15:08;5.63;;;2.80;;
35699;SDS011;21818;51.078;12.108;2022-11-24T04:17:44;4.97;;;2.67;;
35699;SDS011;21818;51.078;12.108;2022-11-24T04:20:11;4.90;;;3.08;;
35699;SDS011;21818;51.078;12.108;2022-11-24T04:22:37;5.18;;;2.95;;
35699;SDS011;21818;51.078;12.108;2022-11-24T04:25:03;3.72;;;2.80;;
35699;SDS011;21818;51.078;12.108;2022-11-24T04:27:31;4.25;;;2.78;;
35699;SDS011;21818;51.078;12.108;2022-11-24T04:29:57;3.85;;;2.63;;
35699;SDS011;21818;51.078;12.108;2022-11-24T04:32:23;5.10;;;2.67;;
35699;SDS011;21818;51.078;12.108;2022-11-24T04:34:48;3.53;;;2.00;;
35699;SDS011;21818;51.078;12.108;2022-11-24T04:37:14;3.78;;;2.53;;
35699;SDS011;21818;51.078;12.108;2022-11-24T04:39:40;4.47;;;2.38;;
35699;SDS011;21818;51.078;12.108;2022-11-24T04:42:05;5.32;;;2.40;;
35699;SDS011;21818;51.078;12.108;2022-11-24T04:44:31;4.93;;;2.58;;
35699;SDS011;21818;51.078;12.108;2022-11-24T04:46:56;5.32;;;2.00;;
35699;SDS011;21818;51.078;12.108;2022-11-24T04:49:22;4.28;;;2.65;;
35699;SDS011;21818;51.078;12.108;2022-11-24T04:51:48;3.75;;;2.30;;
35699;SDS011;21818;51.078;12.108;2022-11-24T04:54:13;3.90;;;2.42;;
35699;SDS011;21818;51.078;12.108;2022-11-24T04:56:40;4.57;;;2.67;;
35699;SDS011;21818;51.078;12.108;2022-11-24T04:59:06;4.38;;;2.10;;
35699;SDS011;21818;51.078;12.108;2022-11-24T05:01:32;3.33;;;2.22;;
35699;SDS011;21818;51.078;12.108;2022-11-24T05:03:57;4.70;;;2.00;;
35699;SDS011;21818;51.078;12.108;2022-11-24T05:06:24;4.72;;;2.40;;
35699;SDS011;21818;51.078;12.108;2022-11-24T05:08:50;4.72;;;2.28;;
35699;SDS011;21818;51.078;12.108;2022-11-24T05:11:16;5.78;;;1.95;;
35699;SDS011;21818;51.078;12.108;2022-11-24T05:13:43;4.45;;;2.25;;
35699;SDS011;21818;51.078;12.108;2022-11-24T05:16:09;4.65;;;1.92;;
35699;SDS011;21818;51.078;12.108;2022-11-24T05:18:35;3.70;;;2.30;;
35699;SDS011;21818;51.078;12.108;2022-11-24T05:21:02;3.20;;;2.20;;
35699;SDS011;21818;51.078;12.108;2022-11-24T05:23:28;4.50;;;2.10;;
35699;SDS011;21818;51.078;12.108;2022-11-24T05:25:58;8.45;;;1.80;;
35699;SDS011;21818;51.078;12.108;2022-11-24T05:28:25;3.50;;;1.92;;
35699;SDS011;21818;51.078;12.108;2022-11-24T05:30:50;3.50;;;1.92;;
35699;SDS011;21818;51.078;12.108;2022-11-24T05:33:16;2.33;;;1.40;;
35699;SDS011;21818;51.078;12.108;2022-11-24T05:35:46;3.15;;;1.77;;
35699;SDS011;21818;51.078;12.108;2022-11-24T05:38:13;2.63;;;1.67;;
35699;SDS011;21818;51.078;12.108;2022-11-24T05:40:42;3.42;;;2.00;;
35699;SDS011;21818;51.078;12.108;2022-11-24T05:43:11;3.13;;;1.95;;
35699;SDS011;21818;51.078;12.108;2022-11-24T05:45:41;2.97;;;1.83;;
35699;SDS011;21818;51.078;12.108;2022-11-24T05:48:07;5.63;;;2.08;;
35699;SDS011;21818;51.078;12.108;2022-11-24T05:50:37;6.03;;;2.10;;
35699;SDS011;21818;51.078;12.108;2022-11-24T05:53:04;3.85;;;1.67;;
35699;SDS011;21818;51.078;12.108;2022-11-24T05:55:32;6.55;;;2.00;;
35699;SDS011;21818;51.078;12.108;2022-11-24T05:58:07;3.53;;;1.60;;
35699;SDS011;21818;51.078;12.108;2022-11-24T06:00:34;3.95;;;1.77;;
35699;SDS011;21818;51.078;12.108;2022-11-24T06:03:00;4.40;;;1.70;;
35699;SDS011;21818;51.078;12.108;2022-11-24T06:05:27;4.50;;;2.00;;
35699;SDS011;21818;51.078;12.108;2022-11-24T06:07:53;3.45;;;2.05;;
35699;SDS011;21818;51.078;12.108;2022-11-24T06:10:20;4.65;;;1.90;;
35699;SDS011;21818;51.078;12.108;2022-11-24T06:12:47;4.53;;;2.00;;
35699;SDS011;21818;51.078;12.108;2022-11-24T06:15:13;2.20;;;1.63;;
35699;SDS011;21818;51.078;12.108;2022-11-24T06:17:39;4.35;;;1.60;;
35699;SDS011;21818;51.078;12.108;2022-11-24T06:20:05;4.85;;;2.10;;
35699;SDS011;21818;51.078;12.108;2022-11-24T06:22:32;2.85;;;1.73;;
35699;SDS011;21818;51.078;12.108;2022-11-24T06:24:57;3.40;;;1.90;;
35699;SDS011;21818;51.078;12.108;2022-11-24T06:27:23;4.85;;;2.00;;
35699;SDS011;21818;51.078;12.108;2022-11-24T06:29:49;1.77;;;1.20;;
35699;SDS011;21818;51.078;12.108;2022-11-24T06:32:15;4.15;;;1.60;;
35699;SDS011;21818;51.078;12.108;2022-11-24T06:34:41;4.25;;;1.80;;
35699;SDS011;21818;51.078;12.108;2022-11-24T06:37:07;5.97;;;1.70;;
35699;SDS011;21818;51.078;12.108;2022-11-24T06:39:33;6.05;;;1.83;;
35699;SDS011;21818;51.078;12.108;2022-11-24T06:41:59;3.55;;;1.83;;
35699;SDS011;21818;51.078;12.108;2022-11-24T06:44:25;3.53;;;1.50;;
35699;SDS011;21818;51.078;12.108;2022-11-24T06:46:50;5.47;;;1.60;;
35699;SDS011;21818;51.078;12.108;2022-11-24T06:49:16;3.22;;;1.60;;
35699;SDS011;21818;51.078;12.108;2022-11-24T06:51:42;6.05;;;1.60;;
35699;SDS011;21818;51.078;12.108;2022-11-24T06:54:08;3.00;;;1.40;;
35699;SDS011;21818;51.078;12.108;2022-11-24T06:56:37;7.10;;;1.80;;
35699;SDS011;21818;51.078;12.108;2022-11-24T06:59:02;2.75;;;1.20;;
35699;SDS011;21818;51.078;12.108;2022-11-24T07:01:28;5.70;;;1.23;;
35699;SDS011;21818;51.078;12.108;2022-11-24T07:03:55;2.67;;;1.27;;
35699;SDS011;21818;51.078;12.108;2022-11-24T07:06:21;3.55;;;1.30;;
35699;SDS011;21818;51.078;12.108;2022-11-24T07:08:48;3.33;;;1.20;;
35699;SDS011;21818;51.078;12.108;2022-11-24T07:11:18;1.95;;;0.98;;
35699;SDS011;21818;51.078;12.108;2022-11-24T07:13:47;2.58;;;1.15;;
35699;SDS011;21818;51.078;12.108;2022-11-24T07:16:22;2.35;;;1.02;;
35699;SDS011;21818;51.078;12.108;2022-11-24T07:18:50;3.33;;;1.20;;
35699;SDS011;21818;51.078;12.108;2022-11-24T07:21:17;7.53;;;1.58;;
35699;SDS011;21818;51.078;12.108;2022-11-24T07:23:46;2.50;;;1.10;;
35699;SDS011;21818;51.078;12.108;2022-11-24T07:26:13;3.58;;;1.63;;
35699;SDS011;21818;51.078;12.108;2022-11-24T07:28:39;3.15;;;1.30;;
35699;SDS011;21818;51.078;12.108;2022-11-24T07:31:06;5.78;;;1.50;;
35699;SDS011;21818;51.078;12.108;2022-11-24T07:33:32;2.88;;;1.17;;
35699;SDS011;21818;51.078;12.108;2022-11-24T07:35:58;2.78;;;1.10;;
35699;SDS011;21818;51.078;12.108;2022-11-24T07:38:24;4.47;;;1.30;;
35699;SDS011;21818;51.078;12.108;2022-11-24T07:40:50;3.17;;;1.30;;
35699;SDS011;21818;51.078;12.108;2022-11-24T07:43:16;2.00;;;1.00;;
35699;SDS011;21818;51.078;12.108;2022-11-24T07:45:42;1.88;;;1.13;;
35699;SDS011;21818;51.078;12.108;2022-11-24T07:48:08;4.78;;;1.30;;
35699;SDS011;21818;51.078;12.108;2022-11-24T07:50:35;2.67;;;1.00;;
35699;SDS011;21818;51.078;12.108;2022-11-24T07:53:02;2.17;;;1.30;;
35699;SDS011;21818;51.078;12.108;2022-11-24T07:55:28;3.45;;;0.90;;
35699;SDS011;21818;51.078;12.108;2022-11-24T07:57:53;3.92;;;1.13;;
35699;SDS011;21818;51.078;12.108;2022-11-24T08:00:23;4.90;;;1.55;;
35699;SDS011;21818;51.078;12.108;2022-11-24T08:02:49;2.90;;;1.20;;
35699;SDS011;21818;51.078;12.108;2022-11-24T08:05:14;4.28;;;1.00;;
35699;SDS011;21818;51.078;12.108;2022-11-24T08:07:40;2.17;;;1.23;;
35699;SDS011;21818;51.078;12.108;2022-11-24T08:10:06;2.33;;;1.15;;
35699;SDS011;21818;51.078;12.108;2022-11-24T08:12:31;1.58;;;0.90;;
35699;SDS011;21818;51.078;12.108;2022-11-24T08:14:57;5.80;;;1.67;;
35699;SDS011;21818;51.078;12.108;2022-11-24T08:17:23;2.25;;;1.15;;
35699;SDS011;21818;51.078;12.108;2022-11-24T08:19:49;7.22;;;1.30;;
35699;SDS011;21818;51.078;12.108;2022-11-24T08:22:15;1.88;;;1.20;;
35699;SDS011;21818;51.078;12.108;2022-11-24T08:24:41;5.22;;;1.55;;
35699;SDS011;21818;51.078;12.108;2022-11-24T08:27:11;4.68;;;1.45;;
35699;SDS011;21818;51.078;12.108;2022-11-24T08:29:37;8.10;;;2.17;;
35699;SDS011;21818;51.078;12.108;2022-11-24T08:32:03;2.70;;;1.10;;
35699;SDS011;21818;51.078;12.108;2022-11-24T08:34:29;1.67;;;0.90;;
35699;SDS011;21818;51.078;12.108;2022-11-24T08:36:54;2.88;;;0.82;;
35699;SDS011;21818;51.078;12.108;2022-11-24T08:39:20;2.53;;;0.88;;
35699;SDS011;21818;51.078;12.108;2022-11-24T08:41:46;3.65;;;0.90;;
35699;SDS011;21818;51.078;12.108;2022-11-24T08:44:11;2.22;;;0.73;;
35699;SDS011;21818;51.078;12.108;2022-11-24T08:46:39;3.70;;;1.02;;
35699;SDS011;21818;51.078;12.108;2022-11-24T08:49:05;3.15;;;0.90;;
35699;SDS011;21818;51.078;12.108;2022-11-24T08:51:32;4.00;;;0.90;;
35699;SDS011;21818;51.078;12.108;2022-11-24T08:53:58;3.33;;;0.85;;
35699;SDS011;21818;51.078;12.108;2022-11-24T08:56:26;3.80;;;1.02;;
35699;SDS011;21818;51.078;12.108;2022-11-24T08:58:53;2.13;;;1.08;;
35699;SDS011;21818;51.078;12.108;2022-11-24T09:01:19;2.67;;;0.98;;
35699;SDS011;21818;51.078;12.108;2022-11-24T09:03:46;2.78;;;1.05;;
35699;SDS011;21818;51.078;12.108;2022-11-24T09:06:12;3.70;;;1.10;;
35699;SDS011;21818;51.078;12.108;2022-11-24T09:08:38;2.70;;;0.82;;
35699;SDS011;21818;51.078;12.108;2022-11-24T09:11:11;1.50;;;0.68;;
35699;SDS011;21818;51.078;12.108;2022-11-24T09:13:38;2.00;;;0.80;;
35699;SDS011;21818;51.078;12.108;2022-11-24T09:16:05;2.60;;;0.80;;
35699;SDS011;21818;51.078;12.108;2022-11-24T09:18:32;3.10;;;1.20;;
35699;SDS011;21818;51.078;12.108;2022-11-24T09:21:09;1.73;;;0.60;;
35699;SDS011;21818;51.078;12.108;2022-11-24T09:23:42;1.80;;;0.90;;
35699;SDS011;21818;51.078;12.108;2022-11-24T09:26:10;3.42;;;0.82;;
35699;SDS011;21818;51.078;12.108;2022-11-24T09:28:37;2.40;;;1.35;;
35699;SDS011;21818;51.078;12.108;2022-11-24T09:31:04;2.05;;;0.93;;
35699;SDS011;21818;51.078;12.108;2022-11-24T09:33:32;3.10;;;0.90;;
35699;SDS011;21818;51.078;12.108;2022-11-24T09:35:58;1.80;;;1.00;;
35699;SDS011;21818;51.078;12.108;2022-11-24T09:38:24;3.05;;;1.10;;
35699;SDS011;21818;51.078;12.108;2022-11-24T09:40:53;2.33;;;0.93;;
35699;SDS011;21818;51.078;12.108;2022-11-24T09:48:40;2.60;;;0.70;;
35699;SDS011;21818;51.078;12.108;2022-11-24T09:51:10;3.25;;;1.00;;
35699;SDS011;21818;51.078;12.108;2022-11-24T09:53:38;3.70;;;1.10;;
35699;SDS011;21818;51.078;12.108;2022-11-24T09:56:42;1.70;;;0.75;;
35699;SDS011;21818;51.078;12.108;2022-11-24T09:59:06;3.58;;;1.45;;
35699;SDS011;21818;51.078;12.108;2022-11-24T10:01:40;1.15;;;0.93;;
35699;SDS011;21818;51.078;12.108;2022-11-24T10:22:49;1.63;;;0.85;;
35699;SDS011;21818;51.078;12.108;2022-11-24T10:25:28;2.83;;;0.88;;
35699;SDS011;21818;51.078;12.108;2022-11-24T10:28:04;4.10;;;1.00;;
35699;SDS011;21818;51.078;12.108;2022-11-24T10:30:36;2.78;;;1.05;;
35699;SDS011;21818;51.078;12.108;2022-11-24T10:33:18;3.63;;;0.90;;
35699;SDS011;21818;51.078;12.108;2022-11-24T10:35:52;2.65;;;0.80;;
35699;SDS011;21818;51.078;12.108;2022-11-24T10:38:34;6.47;;;0.80;;
35699;SDS011;21818;51.078;12.108;2022-11-24T10:41:10;1.52;;;0.73;;
35699;SDS011;21818;51.078;12.108;2022-11-24T10:43:38;4.03;;;1.00;;
35699;SDS011;21818;51.078;12.108;2022-11-24T10:46:19;2.83;;;0.93;;
35699;SDS011;21818;51.078;12.108;2022-11-24T10:48:49;2.75;;;0.90;;
35699;SDS011;21818;51.078;12.108;2022-11-24T10:54:00;3.58;;;0.95;;
35699;SDS011;21818;51.078;12.108;2022-11-24T10:56:40;3.53;;;1.02;;
35699;SDS011;21818;51.078;12.108;2022-11-24T11:01:51;5.38;;;1.00;;
35699;SDS011;21818;51.078;12.108;2022-11-24T11:04:19;3.05;;;0.95;;
35699;SDS011;21818;51.078;12.108;2022-11-24T11:06:46;4.78;;;1.08;;
35699;SDS011;21818;51.078;12.108;2022-11-24T11:09:16;4.72;;;1.10;;
35699;SDS011;21818;51.078;12.108;2022-11-24T11:11:46;3.30;;;1.02;;
35699;SDS011;21818;51.078;12.108;2022-11-24T11:14:32;4.93;;;1.13;;
35699;SDS011;21818;51.078;12.108;2022-11-24T11:16:59;2.47;;;1.17;;
35699;SDS011;21818;51.078;12.108;2022-11-24T11:24:42;3.53;;;1.50;;
35699;SDS011;21818;51.078;12.108;2022-11-24T11:27:17;3.90;;;1.25;;
35699;SDS011;21818;51.078;12.108;2022-11-24T11:29:45;2.95;;;0.88;;
35699;SDS011;21818;51.078;12.108;2022-11-24T11:34:41;3.22;;;0.80;;
35699;SDS011;21818;51.078;12.108;2022-11-24T11:37:07;3.45;;;0.82;;
35699;SDS011;21818;51.078;12.108;2022-11-24T11:39:40;2.55;;;0.90;;
35699;SDS011;21818;51.078;12.108;2022-11-24T11:47:51;2.65;;;0.70;;
35699;SDS011;21818;51.078;12.108;2022-11-24T11:50:40;2.00;;;0.70;;
35699;SDS011;21818;51.078;12.108;2022-11-24T12:09:16;1.60;;;0.70;;
35699;SDS011;21818;51.078;12.108;2022-11-24T12:15:17;3.55;;;1.00;;
35699;SDS011;21818;51.078;12.108;2022-11-24T12:18:16;3.90;;;0.90;;
35699;SDS011;21818;51.078;12.108;2022-11-24T12:21:16;3.72;;;0.85;;
35699;SDS011;21818;51.078;12.108;2022-11-24T12:37:27;3.65;;;0.88;;
35699;SDS011;21818;51.078;12.108;2022-11-24T12:40:22;3.58;;;0.80;;
35699;SDS011;21818;51.078;12.108;2022-11-24T12:51:13;3.47;;;1.00;;
35699;SDS011;21818;51.078;12.108;2022-11-24T12:53:42;5.72;;;1.10;;
35699;SDS011;21818;51.078;12.108;2022-11-24T12:56:11;5.10;;;1.15;;
35699;SDS011;21818;51.078;12.108;2022-11-24T13:01:27;1.10;;;0.70;;
35699;SDS011;21818;51.078;12.108;2022-11-24T13:04:04;2.30;;;0.90;;
35699;SDS011;21818;51.078;12.108;2022-11-24T13:06:36;5.15;;;1.23;;
35699;SDS011;21818;51.078;12.108;2022-11-24T13:09:07;2.35;;;0.80;;
35699;SDS011;21818;51.078;12.108;2022-11-24T13:11:44;1.23;;;0.60;;
35699;SDS011;21818;51.078;12.108;2022-11-24T13:16:47;4.00;;;1.33;;
35699;SDS011;21818;51.078;12.108;2022-11-24T13:19:16;1.58;;;0.70;;
35699;SDS011;21818;51.078;12.108;2022-11-24T13:21:47;3.45;;;1.23;;
35699;SDS011;21818;51.078;12.108;2022-11-24T13:24:24;1.45;;;0.70;;
35699;SDS011;21818;51.078;12.108;2022-11-24T13:26:52;3.58;;;1.20;;
35699;SDS011;21818;51.078;12.108;2022-11-24T13:29:46;2.28;;;0.80;;
35699;SDS011;21818;51.078;12.108;2022-11-24T13:39:57;2.50;;;0.90;;
35699;SDS011;21818;51.078;12.108;2022-11-24T13:42:25;2.70;;;0.98;;
35699;SDS011;21818;51.078;12.108;2022-11-24T13:44:59;2.05;;;0.95;;
35699;SDS011;21818;51.078;12.108;2022-11-24T13:50:07;2.53;;;0.75;;
35699;SDS011;21818;51.078;12.108;2022-11-24T13:57:53;2.55;;;0.93;;
35699;SDS011;21818;51.078;12.108;2022-11-24T14:02:51;2.85;;;0.70;;
35699;SDS011;21818;51.078;12.108;2022-11-24T14:05:26;2.80;;;0.80;;
35699;SDS011;21818;51.078;12.108;2022-11-24T14:08:03;2.17;;;0.73;;
35699;SDS011;21818;51.078;12.108;2022-11-24T14:10:32;1.60;;;0.85;;
35699;SDS011;21818;51.078;12.108;2022-11-24T14:18:35;2.63;;;0.73;;
35699;SDS011;21818;51.078;12.108;2022-11-24T14:23:56;2.95;;;0.68;;
35699;SDS011;21818;51.078;12.108;2022-11-24T14:26:38;2.20;;;0.90;;
35699;SDS011;21818;51.078;12.108;2022-11-24T14:32:00;1.30;;;0.47;;
35699;SDS011;21818;51.078;12.108;2022-11-24T14:34:29;1.45;;;0.68;;
35699;SDS011;21818;51.078;12.108;2022-11-24T14:36:56;3.40;;;0.65;;
35699;SDS011;21818;51.078;12.108;2022-11-24T14:39:24;2.15;;;0.85;;
35699;SDS011;21818;51.078;12.108;2022-11-24T14:47:22;5.30;;;1.03;;
35699;SDS011;21818;51.078;12.108;2022-11-24T14:50:08;2.28;;;0.75;;
35699;SDS011;21818;51.078;12.108;2022-11-24T14:52:34;2.00;;;0.88;;
35699;SDS011;21818;51.078;12.108;2022-11-24T14:55:21;4.13;;;0.80;;
35699;SDS011;21818;51.078;12.108;2022-11-24T14:57:48;4.90;;;0.90;;
35699;SDS011;21818;51.078;12.108;2022-11-24T15:00:18;2.83;;;1.40;;
35699;SDS011;21818;51.078;12.108;2022-11-24T15:02:45;4.95;;;0.90;;
35699;SDS011;21818;51.078;12.108;2022-11-24T15:05:18;2.33;;;0.68;;
35699;SDS011;21818;51.078;12.108;2022-11-24T15:07:45;2.35;;;0.82;;
35699;SDS011;21818;51.078;12.108;2022-11-24T15:10:19;3.25;;;0.90;;
35699;SDS011;21818;51.078;12.108;2022-11-24T15:12:57;1.58;;;0.47;;
35699;SDS011;21818;51.078;12.108;2022-11-24T15:15:35;1.92;;;0.60;;
35699;SDS011;21818;51.078;12.108;2022-11-24T15:18:03;2.45;;;0.50;;
35699;SDS011;21818;51.078;12.108;2022-11-24T15:20:33;0.82;;;0.50;;
35699;SDS011;21818;51.078;12.108;2022-11-24T15:23:19;1.25;;;0.50;;
35699;SDS011;21818;51.078;12.108;2022-11-24T15:25:55;1.13;;;0.60;;
35699;SDS011;21818;51.078;12.108;2022-11-24T15:28:31;1.88;;;0.90;;
35699;SDS011;21818;51.078;12.108;2022-11-24T15:31:30;1.05;;;0.50;;
35699;SDS011;21818;51.078;12.108;2022-11-24T15:33:48;1.27;;;0.52;;
35699;SDS011;21818;51.078;12.108;2022-11-24T15:36:14;2.00;;;0.47;;
35699;SDS011;21818;51.078;12.108;2022-11-24T15:38:40;1.73;;;1.00;;
35699;SDS011;21818;51.078;12.108;2022-11-24T15:41:12;1.70;;;0.75;;
35699;SDS011;21818;51.078;12.108;2022-11-24T15:43:43;2.30;;;0.80;;
35699;SDS011;21818;51.078;12.108;2022-11-24T15:46:08;1.50;;;0.65;;
35699;SDS011;21818;51.078;12.108;2022-11-24T15:48:34;2.08;;;0.60;;
35699;SDS011;21818;51.078;12.108;2022-11-24T15:51:00;3.53;;;0.70;;
35699;SDS011;21818;51.078;12.108;2022-11-24T15:56:02;3.10;;;1.02;;
35699;SDS011;21818;51.078;12.108;2022-11-24T15:58:31;4.30;;;0.80;;
35699;SDS011;21818;51.078;12.108;2022-11-24T16:00:56;1.65;;;0.75;;
35699;SDS011;21818;51.078;12.108;2022-11-24T16:03:22;1.50;;;0.70;;
35699;SDS011;21818;51.078;12.108;2022-11-24T16:05:48;1.17;;;0.60;;
35699;SDS011;21818;51.078;12.108;2022-11-24T16:08:18;1.93;;;0.70;;
35699;SDS011;21818;51.078;12.108;2022-11-24T16:10:43;2.65;;;0.80;;
35699;SDS011;21818;51.078;12.108;2022-11-24T16:13:09;1.42;;;0.63;;
35699;SDS011;21818;51.078;12.108;2022-11-24T16:15:35;3.15;;;0.90;;
35699;SDS011;21818;51.078;12.108;2022-11-24T16:18:04;2.65;;;0.85;;
35699;SDS011;21818;51.078;12.108;2022-11-24T16:20:31;4.13;;;1.08;;
35699;SDS011;21818;51.078;12.108;2022-11-24T16:23:00;4.80;;;1.50;;
35699;SDS011;21818;51.078;12.108;2022-11-24T16:25:28;2.92;;;0.93;;
35699;SDS011;21818;51.078;12.108;2022-11-24T16:27:54;1.85;;;0.73;;
35699;SDS011;21818;51.078;12.108;2022-11-24T16:30:20;1.77;;;0.93;;
35699;SDS011;21818;51.078;12.108;2022-11-24T16:32:45;2.67;;;0.93;;
35699;SDS011;21818;51.078;12.108;2022-11-24T16:35:11;1.80;;;0.90;;
35699;SDS011;21818;51.078;12.108;2022-11-24T16:37:36;3.38;;;0.95;;
35699;SDS011;21818;51.078;12.108;2022-11-24T16:40:02;1.08;;;0.47;;
35699;SDS011;21818;51.078;12.108;2022-11-24T16:42:29;1.20;;;0.65;;
35699;SDS011;21818;51.078;12.108;2022-11-24T16:44:55;2.25;;;0.70;;
35699;SDS011;21818;51.078;12.108;2022-11-24T16:47:20;3.22;;;0.60;;
35699;SDS011;21818;51.078;12.108;2022-11-24T16:49:46;4.75;;;0.80;;
35699;SDS011;21818;51.078;12.108;2022-11-24T16:52:13;1.25;;;0.65;;
35699;SDS011;21818;51.078;12.108;2022-11-24T16:54:39;3.47;;;0.95;;
35699;SDS011;21818;51.078;12.108;2022-11-24T16:57:05;1.65;;;0.70;;
35699;SDS011;21818;51.078;12.108;2022-11-24T16:59:31;3.45;;;0.88;;